sensor_id;sensor_type;location;lat;lon;timestamp;P1;durP1;ratioP1;P2;durP2;ratioP2
7729;SDS011;3908;52.310;7.230;2023-01-29T00:00:18;28.33;;;14.53;;
7729;SDS011;3908;52.310;7.230;2023-01-29T00:03:07;27.37;;;14.30;;
7729;SDS011;3908;52.310;7.230;2023-01-29T00:05:54;30.47;;;16.23;;
7729;SDS011;3908;52.310;7.230;2023-01-29T00:08:41;25.87;;;14.47;;
7729;SDS011;3908;52.310;7.230;2023-01-29T00:11:28;28.93;;;15.83;;
7729;SDS011;3908;52.310;7.230;2023-01-29T00:14:16;25.40;;;14.47;;
7729;SDS011;3908;52.310;7.230;2023-01-29T00:17:03;34.73;;;15.87;;
7729;SDS011;3908;52.310;7.230;2023-01-29T00:19:51;30.13;;;16.23;;
7729;SDS011;3908;52.310;7.230;2023-01-29T00:22:38;28.43;;;15.67;;
7729;SDS011;3908;52.310;7.230;2023-01-29T00:25:26;28.27;;;15.77;;
7729;SDS011;3908;52.310;7.230;2023-01-29T00:28:13;29.73;;;15.37;;
7729;SDS011;3908;52.310;7.230;2023-01-29T00:31:05;29.10;;;15.00;;
7729;SDS011;3908;52.310;7.230;2023-01-29T00:33:52;30.20;;;15.80;;
7729;SDS011;3908;52.310;7.230;2023-01-29T00:36:41;30.17;;;15.97;;
7729;SDS011;3908;52.310;7.230;2023-01-29T00:39:29;30.77;;;15.73;;
7729;SDS011;3908;52.310;7.230;2023-01-29T00:42:23;27.33;;;15.37;;
7729;SDS011;3908;52.310;7.230;2023-01-29T00:45:27;30.20;;;15.93;;
7729;SDS011;3908;52.310;7.230;2023-01-29T00:48:14;30.33;;;15.90;;
7729;SDS011;3908;52.310;7.230;2023-01-29T00:51:02;26.87;;;14.73;;
7729;SDS011;3908;52.310;7.230;2023-01-29T00:53:50;30.80;;;16.73;;
7729;SDS011;3908;52.310;7.230;2023-01-29T00:56:38;27.70;;;15.10;;
7729;SDS011;3908;52.310;7.230;2023-01-29T00:59:25;34.57;;;14.40;;
7729;SDS011;3908;52.310;7.230;2023-01-29T01:02:13;30.27;;;15.47;;
7729;SDS011;3908;52.310;7.230;2023-01-29T01:05:17;29.20;;;15.67;;
7729;SDS011;3908;52.310;7.230;2023-01-29T01:08:05;28.10;;;14.97;;
7729;SDS011;3908;52.310;7.230;2023-01-29T01:11:14;27.70;;;14.10;;
7729;SDS011;3908;52.310;7.230;2023-01-29T01:14:00;27.70;;;14.80;;
7729;SDS011;3908;52.310;7.230;2023-01-29T01:16:47;28.40;;;15.67;;
7729;SDS011;3908;52.310;7.230;2023-01-29T01:19:35;30.27;;;15.20;;
7729;SDS011;3908;52.310;7.230;2023-01-29T01:22:22;31.97;;;16.03;;
7729;SDS011;3908;52.310;7.230;2023-01-29T01:25:09;31.30;;;16.63;;
7729;SDS011;3908;52.310;7.230;2023-01-29T01:27:58;30.77;;;16.10;;
7729;SDS011;3908;52.310;7.230;2023-01-29T01:30:45;31.23;;;16.30;;
7729;SDS011;3908;52.310;7.230;2023-01-29T01:33:32;27.50;;;14.13;;
7729;SDS011;3908;52.310;7.230;2023-01-29T01:36:19;29.47;;;15.43;;
7729;SDS011;3908;52.310;7.230;2023-01-29T01:39:07;34.00;;;15.67;;
7729;SDS011;3908;52.310;7.230;2023-01-29T01:41:54;29.40;;;15.97;;
7729;SDS011;3908;52.310;7.230;2023-01-29T01:44:50;28.53;;;15.67;;
7729;SDS011;3908;52.310;7.230;2023-01-29T01:47:40;29.00;;;15.20;;
7729;SDS011;3908;52.310;7.230;2023-01-29T01:50:29;27.50;;;14.73;;
7729;SDS011;3908;52.310;7.230;2023-01-29T01:53:20;28.47;;;14.80;;
7729;SDS011;3908;52.310;7.230;2023-01-29T01:56:11;27.73;;;15.37;;
7729;SDS011;3908;52.310;7.230;2023-01-29T01:59:01;30.40;;;14.83;;
7729;SDS011;3908;52.310;7.230;2023-01-29T02:01:52;29.47;;;14.33;;
7729;SDS011;3908;52.310;7.230;2023-01-29T02:04:41;30.50;;;15.43;;
7729;SDS011;3908;52.310;7.230;2023-01-29T02:07:49;27.83;;;13.77;;
7729;SDS011;3908;52.310;7.230;2023-01-29T02:10:54;26.93;;;13.77;;
7729;SDS011;3908;52.310;7.230;2023-01-29T02:13:42;29.73;;;15.67;;
7729;SDS011;3908;52.310;7.230;2023-01-29T02:16:29;30.03;;;14.50;;
7729;SDS011;3908;52.310;7.230;2023-01-29T02:19:22;32.50;;;15.13;;
7729;SDS011;3908;52.310;7.230;2023-01-29T02:22:23;30.93;;;15.97;;
7729;SDS011;3908;52.310;7.230;2023-01-29T02:25:32;26.47;;;14.17;;
7729;SDS011;3908;52.310;7.230;2023-01-29T02:28:37;33.30;;;16.00;;
7729;SDS011;3908;52.310;7.230;2023-01-29T02:31:30;30.73;;;15.43;;
7729;SDS011;3908;52.310;7.230;2023-01-29T02:34:27;29.20;;;14.40;;
7729;SDS011;3908;52.310;7.230;2023-01-29T02:37:43;31.43;;;16.23;;
7729;SDS011;3908;52.310;7.230;2023-01-29T02:40:38;31.53;;;15.60;;
7729;SDS011;3908;52.310;7.230;2023-01-29T02:43:29;31.47;;;15.23;;
7729;SDS011;3908;52.310;7.230;2023-01-29T02:46:26;31.00;;;15.37;;
7729;SDS011;3908;52.310;7.230;2023-01-29T02:49:20;28.30;;;15.37;;
7729;SDS011;3908;52.310;7.230;2023-01-29T02:52:13;28.63;;;15.73;;
7729;SDS011;3908;52.310;7.230;2023-01-29T02:55:05;28.80;;;15.00;;
7729;SDS011;3908;52.310;7.230;2023-01-29T02:57:58;28.23;;;13.93;;
7729;SDS011;3908;52.310;7.230;2023-01-29T03:00:49;29.70;;;15.83;;
7729;SDS011;3908;52.310;7.230;2023-01-29T03:03:41;32.03;;;16.50;;
7729;SDS011;3908;52.310;7.230;2023-01-29T03:06:31;29.10;;;14.80;;
7729;SDS011;3908;52.310;7.230;2023-01-29T03:09:24;30.37;;;15.30;;
7729;SDS011;3908;52.310;7.230;2023-01-29T03:12:16;27.47;;;14.17;;
7729;SDS011;3908;52.310;7.230;2023-01-29T03:15:19;28.67;;;14.70;;
7729;SDS011;3908;52.310;7.230;2023-01-29T03:18:14;29.93;;;16.30;;
7729;SDS011;3908;52.310;7.230;2023-01-29T03:21:08;27.60;;;14.47;;
7729;SDS011;3908;52.310;7.230;2023-01-29T03:24:14;32.37;;;15.60;;
7729;SDS011;3908;52.310;7.230;2023-01-29T03:27:22;27.07;;;15.10;;
7729;SDS011;3908;52.310;7.230;2023-01-29T03:30:30;32.40;;;15.87;;
7729;SDS011;3908;52.310;7.230;2023-01-29T03:33:39;27.10;;;14.27;;
7729;SDS011;3908;52.310;7.230;2023-01-29T03:36:33;29.40;;;14.93;;
7729;SDS011;3908;52.310;7.230;2023-01-29T03:39:24;31.77;;;15.77;;
7729;SDS011;3908;52.310;7.230;2023-01-29T03:42:15;29.00;;;14.43;;
7729;SDS011;3908;52.310;7.230;2023-01-29T03:45:09;32.07;;;15.27;;
7729;SDS011;3908;52.310;7.230;2023-01-29T03:48:03;29.97;;;15.17;;
7729;SDS011;3908;52.310;7.230;2023-01-29T03:50:58;36.17;;;16.87;;
7729;SDS011;3908;52.310;7.230;2023-01-29T03:53:55;29.90;;;15.67;;
7729;SDS011;3908;52.310;7.230;2023-01-29T03:56:52;30.90;;;15.63;;
7729;SDS011;3908;52.310;7.230;2023-01-29T03:59:45;30.37;;;14.20;;
7729;SDS011;3908;52.310;7.230;2023-01-29T04:02:41;29.03;;;14.57;;
7729;SDS011;3908;52.310;7.230;2023-01-29T04:05:34;30.50;;;14.30;;
7729;SDS011;3908;52.310;7.230;2023-01-29T04:08:26;30.20;;;14.97;;
7729;SDS011;3908;52.310;7.230;2023-01-29T04:11:18;29.87;;;14.77;;
7729;SDS011;3908;52.310;7.230;2023-01-29T04:14:07;31.20;;;14.80;;
7729;SDS011;3908;52.310;7.230;2023-01-29T04:16:56;31.30;;;15.30;;
7729;SDS011;3908;52.310;7.230;2023-01-29T04:19:47;33.43;;;16.40;;
7729;SDS011;3908;52.310;7.230;2023-01-29T04:22:35;28.23;;;14.40;;
7729;SDS011;3908;52.310;7.230;2023-01-29T04:25:25;34.83;;;16.70;;
7729;SDS011;3908;52.310;7.230;2023-01-29T04:28:18;29.87;;;15.87;;
7729;SDS011;3908;52.310;7.230;2023-01-29T04:31:08;30.40;;;15.67;;
7729;SDS011;3908;52.310;7.230;2023-01-29T04:34:00;30.87;;;15.87;;
7729;SDS011;3908;52.310;7.230;2023-01-29T04:37:01;32.40;;;15.20;;
7729;SDS011;3908;52.310;7.230;2023-01-29T04:39:55;36.80;;;17.23;;
7729;SDS011;3908;52.310;7.230;2023-01-29T04:42:49;31.40;;;14.70;;
7729;SDS011;3908;52.310;7.230;2023-01-29T04:45:49;34.40;;;16.33;;
7729;SDS011;3908;52.310;7.230;2023-01-29T04:48:55;31.53;;;14.93;;
7729;SDS011;3908;52.310;7.230;2023-01-29T04:51:50;29.93;;;14.90;;
7729;SDS011;3908;52.310;7.230;2023-01-29T04:54:49;35.13;;;16.63;;
7729;SDS011;3908;52.310;7.230;2023-01-29T04:57:42;31.40;;;15.87;;
7729;SDS011;3908;52.310;7.230;2023-01-29T05:00:37;34.40;;;15.63;;
7729;SDS011;3908;52.310;7.230;2023-01-29T05:03:28;31.93;;;15.40;;
7729;SDS011;3908;52.310;7.230;2023-01-29T05:06:19;34.67;;;16.73;;
7729;SDS011;3908;52.310;7.230;2023-01-29T05:09:06;32.70;;;16.30;;
7729;SDS011;3908;52.310;7.230;2023-01-29T05:11:54;33.70;;;15.77;;
7729;SDS011;3908;52.310;7.230;2023-01-29T05:14:43;32.70;;;15.57;;
7729;SDS011;3908;52.310;7.230;2023-01-29T05:17:32;32.90;;;15.80;;
7729;SDS011;3908;52.310;7.230;2023-01-29T05:20:21;29.60;;;15.13;;
7729;SDS011;3908;52.310;7.230;2023-01-29T05:23:08;31.87;;;16.23;;
7729;SDS011;3908;52.310;7.230;2023-01-29T05:25:56;31.17;;;15.27;;
7729;SDS011;3908;52.310;7.230;2023-01-29T05:28:43;28.20;;;15.50;;
7729;SDS011;3908;52.310;7.230;2023-01-29T05:31:29;35.37;;;17.20;;
7729;SDS011;3908;52.310;7.230;2023-01-29T05:34:16;31.87;;;15.30;;
7729;SDS011;3908;52.310;7.230;2023-01-29T05:37:05;31.77;;;16.67;;
7729;SDS011;3908;52.310;7.230;2023-01-29T05:39:52;35.37;;;16.97;;
7729;SDS011;3908;52.310;7.230;2023-01-29T05:42:39;32.50;;;15.93;;
7729;SDS011;3908;52.310;7.230;2023-01-29T05:45:41;29.93;;;14.10;;
7729;SDS011;3908;52.310;7.230;2023-01-29T05:48:28;31.20;;;15.53;;
7729;SDS011;3908;52.310;7.230;2023-01-29T05:51:16;29.43;;;16.43;;
7729;SDS011;3908;52.310;7.230;2023-01-29T05:54:05;30.83;;;14.87;;
7729;SDS011;3908;52.310;7.230;2023-01-29T05:56:52;28.53;;;13.83;;
7729;SDS011;3908;52.310;7.230;2023-01-29T05:59:39;33.47;;;15.90;;
7729;SDS011;3908;52.310;7.230;2023-01-29T06:02:28;31.47;;;15.47;;
7729;SDS011;3908;52.310;7.230;2023-01-29T06:05:15;29.17;;;14.40;;
7729;SDS011;3908;52.310;7.230;2023-01-29T06:08:02;31.77;;;16.77;;
7729;SDS011;3908;52.310;7.230;2023-01-29T06:10:51;27.00;;;14.97;;
7729;SDS011;3908;52.310;7.230;2023-01-29T06:13:39;33.37;;;15.70;;
7729;SDS011;3908;52.310;7.230;2023-01-29T06:16:26;30.47;;;16.43;;
7729;SDS011;3908;52.310;7.230;2023-01-29T06:19:13;29.33;;;15.67;;
7729;SDS011;3908;52.310;7.230;2023-01-29T06:22:02;29.17;;;15.17;;
7729;SDS011;3908;52.310;7.230;2023-01-29T06:24:49;33.57;;;15.93;;
7729;SDS011;3908;52.310;7.230;2023-01-29T06:27:37;31.40;;;15.80;;
7729;SDS011;3908;52.310;7.230;2023-01-29T06:30:24;28.27;;;14.90;;
7729;SDS011;3908;52.310;7.230;2023-01-29T06:33:12;31.10;;;17.00;;
7729;SDS011;3908;52.310;7.230;2023-01-29T06:36:01;29.30;;;15.60;;
7729;SDS011;3908;52.310;7.230;2023-01-29T06:38:49;34.07;;;16.43;;
7729;SDS011;3908;52.310;7.230;2023-01-29T06:41:36;32.93;;;15.77;;
7729;SDS011;3908;52.310;7.230;2023-01-29T06:44:25;34.77;;;14.27;;
7729;SDS011;3908;52.310;7.230;2023-01-29T06:47:12;32.83;;;16.20;;
7729;SDS011;3908;52.310;7.230;2023-01-29T06:49:59;30.60;;;15.57;;
7729;SDS011;3908;52.310;7.230;2023-01-29T06:52:46;33.77;;;16.80;;
7729;SDS011;3908;52.310;7.230;2023-01-29T06:55:33;35.40;;;17.07;;
7729;SDS011;3908;52.310;7.230;2023-01-29T06:58:20;31.03;;;16.53;;
7729;SDS011;3908;52.310;7.230;2023-01-29T07:01:09;34.23;;;17.00;;
7729;SDS011;3908;52.310;7.230;2023-01-29T07:03:57;31.20;;;15.10;;
7729;SDS011;3908;52.310;7.230;2023-01-29T07:06:44;31.37;;;16.37;;
7729;SDS011;3908;52.310;7.230;2023-01-29T07:09:31;29.93;;;16.23;;
7729;SDS011;3908;52.310;7.230;2023-01-29T07:12:18;34.03;;;16.50;;
7729;SDS011;3908;52.310;7.230;2023-01-29T07:15:06;28.07;;;15.47;;
7729;SDS011;3908;52.310;7.230;2023-01-29T07:17:58;33.27;;;16.83;;
7729;SDS011;3908;52.310;7.230;2023-01-29T07:20:48;32.97;;;17.43;;
7729;SDS011;3908;52.310;7.230;2023-01-29T07:23:36;31.23;;;15.97;;
7729;SDS011;3908;52.310;7.230;2023-01-29T07:26:23;34.40;;;16.37;;
7729;SDS011;3908;52.310;7.230;2023-01-29T07:29:10;37.17;;;17.03;;
7729;SDS011;3908;52.310;7.230;2023-01-29T07:31:57;29.30;;;15.50;;
7729;SDS011;3908;52.310;7.230;2023-01-29T07:34:45;33.30;;;15.57;;
7729;SDS011;3908;52.310;7.230;2023-01-29T07:37:32;33.90;;;15.57;;
7729;SDS011;3908;52.310;7.230;2023-01-29T07:40:19;34.53;;;16.80;;
7729;SDS011;3908;52.310;7.230;2023-01-29T07:43:07;32.37;;;16.03;;
7729;SDS011;3908;52.310;7.230;2023-01-29T07:45:55;32.50;;;17.80;;
7729;SDS011;3908;52.310;7.230;2023-01-29T07:48:42;32.77;;;17.07;;
7729;SDS011;3908;52.310;7.230;2023-01-29T07:51:30;32.13;;;16.13;;
7729;SDS011;3908;52.310;7.230;2023-01-29T07:54:18;31.73;;;16.27;;
7729;SDS011;3908;52.310;7.230;2023-01-29T07:57:05;33.73;;;16.80;;
7729;SDS011;3908;52.310;7.230;2023-01-29T07:59:52;30.33;;;16.23;;
7729;SDS011;3908;52.310;7.230;2023-01-29T08:02:39;30.97;;;14.80;;
7729;SDS011;3908;52.310;7.230;2023-01-29T08:05:26;32.87;;;16.80;;
7729;SDS011;3908;52.310;7.230;2023-01-29T08:08:15;38.50;;;17.87;;
7729;SDS011;3908;52.310;7.230;2023-01-29T08:11:03;36.93;;;16.90;;
7729;SDS011;3908;52.310;7.230;2023-01-29T08:17:37;36.20;;;17.30;;
7729;SDS011;3908;52.310;7.230;2023-01-29T08:23:34;37.20;;;17.37;;
7729;SDS011;3908;52.310;7.230;2023-01-29T08:26:21;35.27;;;16.70;;
7729;SDS011;3908;52.310;7.230;2023-01-29T08:29:10;32.33;;;16.77;;
7729;SDS011;3908;52.310;7.230;2023-01-29T08:31:57;34.40;;;17.33;;
7729;SDS011;3908;52.310;7.230;2023-01-29T08:34:45;35.93;;;17.10;;
7729;SDS011;3908;52.310;7.230;2023-01-29T08:37:32;31.83;;;16.23;;
7729;SDS011;3908;52.310;7.230;2023-01-29T08:40:21;35.10;;;17.07;;
7729;SDS011;3908;52.310;7.230;2023-01-29T08:43:09;31.23;;;16.10;;
7729;SDS011;3908;52.310;7.230;2023-01-29T08:45:57;33.23;;;17.23;;
7729;SDS011;3908;52.310;7.230;2023-01-29T08:48:44;32.37;;;16.90;;
7729;SDS011;3908;52.310;7.230;2023-01-29T08:51:31;30.53;;;16.40;;
7729;SDS011;3908;52.310;7.230;2023-01-29T08:54:18;32.97;;;14.97;;
7729;SDS011;3908;52.310;7.230;2023-01-29T08:57:06;30.50;;;15.47;;
7729;SDS011;3908;52.310;7.230;2023-01-29T08:59:53;29.10;;;15.90;;
7729;SDS011;3908;52.310;7.230;2023-01-29T09:02:40;29.57;;;16.10;;
7729;SDS011;3908;52.310;7.230;2023-01-29T09:05:27;32.70;;;15.30;;
7729;SDS011;3908;52.310;7.230;2023-01-29T09:08:14;36.57;;;16.77;;
7729;SDS011;3908;52.310;7.230;2023-01-29T09:11:02;33.10;;;15.97;;
7729;SDS011;3908;52.310;7.230;2023-01-29T09:13:50;27.73;;;14.87;;
7729;SDS011;3908;52.310;7.230;2023-01-29T09:16:37;32.97;;;16.53;;
7729;SDS011;3908;52.310;7.230;2023-01-29T09:19:24;32.20;;;16.47;;
7729;SDS011;3908;52.310;7.230;2023-01-29T09:22:11;32.60;;;16.80;;
7729;SDS011;3908;52.310;7.230;2023-01-29T09:24:58;29.27;;;16.10;;
7729;SDS011;3908;52.310;7.230;2023-01-29T09:27:45;32.60;;;15.43;;
7729;SDS011;3908;52.310;7.230;2023-01-29T09:30:33;31.97;;;16.90;;
7729;SDS011;3908;52.310;7.230;2023-01-29T09:33:22;30.63;;;15.27;;
7729;SDS011;3908;52.310;7.230;2023-01-29T09:36:10;30.50;;;15.30;;
7729;SDS011;3908;52.310;7.230;2023-01-29T09:38:57;32.97;;;15.67;;
7729;SDS011;3908;52.310;7.230;2023-01-29T09:41:47;30.57;;;16.63;;
7729;SDS011;3908;52.310;7.230;2023-01-29T09:44:45;33.77;;;16.30;;
7729;SDS011;3908;52.310;7.230;2023-01-29T09:47:38;30.03;;;16.60;;
7729;SDS011;3908;52.310;7.230;2023-01-29T09:50:27;30.17;;;15.90;;
7729;SDS011;3908;52.310;7.230;2023-01-29T09:53:17;28.27;;;15.87;;
7729;SDS011;3908;52.310;7.230;2023-01-29T09:56:09;28.23;;;15.47;;
7729;SDS011;3908;52.310;7.230;2023-01-29T09:58:59;35.93;;;17.27;;
7729;SDS011;3908;52.310;7.230;2023-01-29T10:01:49;36.30;;;16.47;;
7729;SDS011;3908;52.310;7.230;2023-01-29T10:04:51;31.67;;;15.97;;
7729;SDS011;3908;52.310;7.230;2023-01-29T10:11:16;29.63;;;16.30;;
7729;SDS011;3908;52.310;7.230;2023-01-29T10:14:15;30.63;;;16.50;;
7729;SDS011;3908;52.310;7.230;2023-01-29T10:17:20;28.47;;;15.77;;
7729;SDS011;3908;52.310;7.230;2023-01-29T10:23:29;28.10;;;15.53;;
7729;SDS011;3908;52.310;7.230;2023-01-29T10:26:18;31.37;;;15.07;;
7729;SDS011;3908;52.310;7.230;2023-01-29T10:29:09;29.57;;;15.57;;
7729;SDS011;3908;52.310;7.230;2023-01-29T10:32:03;34.40;;;15.70;;
7729;SDS011;3908;52.310;7.230;2023-01-29T10:34:51;30.73;;;16.80;;
7729;SDS011;3908;52.310;7.230;2023-01-29T10:37:43;30.43;;;16.17;;
7729;SDS011;3908;52.310;7.230;2023-01-29T10:40:31;31.17;;;16.80;;
7729;SDS011;3908;52.310;7.230;2023-01-29T10:43:27;31.10;;;15.63;;
7729;SDS011;3908;52.310;7.230;2023-01-29T10:46:20;28.07;;;15.23;;
7729;SDS011;3908;52.310;7.230;2023-01-29T10:49:17;27.77;;;15.17;;
7729;SDS011;3908;52.310;7.230;2023-01-29T10:52:19;32.83;;;15.57;;
7729;SDS011;3908;52.310;7.230;2023-01-29T10:55:21;30.23;;;15.37;;
7729;SDS011;3908;52.310;7.230;2023-01-29T10:58:21;25.80;;;14.13;;
7729;SDS011;3908;52.310;7.230;2023-01-29T11:01:16;24.23;;;14.10;;
7729;SDS011;3908;52.310;7.230;2023-01-29T11:04:03;26.47;;;14.60;;
7729;SDS011;3908;52.310;7.230;2023-01-29T11:06:55;28.43;;;14.57;;
7729;SDS011;3908;52.310;7.230;2023-01-29T11:09:43;27.73;;;15.47;;
7729;SDS011;3908;52.310;7.230;2023-01-29T11:12:37;26.27;;;14.10;;
7729;SDS011;3908;52.310;7.230;2023-01-29T11:15:25;27.60;;;14.53;;
7729;SDS011;3908;52.310;7.230;2023-01-29T11:18:17;27.83;;;13.67;;
7729;SDS011;3908;52.310;7.230;2023-01-29T11:21:04;26.37;;;14.80;;
7729;SDS011;3908;52.310;7.230;2023-01-29T11:24:03;25.93;;;14.37;;
7729;SDS011;3908;52.310;7.230;2023-01-29T11:26:53;25.90;;;14.67;;
7729;SDS011;3908;52.310;7.230;2023-01-29T11:29:46;27.97;;;14.40;;
7729;SDS011;3908;52.310;7.230;2023-01-29T11:32:34;28.07;;;14.40;;
7729;SDS011;3908;52.310;7.230;2023-01-29T11:35:22;26.83;;;13.77;;
7729;SDS011;3908;52.310;7.230;2023-01-29T11:38:16;22.13;;;13.53;;
7729;SDS011;3908;52.310;7.230;2023-01-29T11:41:12;25.77;;;14.83;;
7729;SDS011;3908;52.310;7.230;2023-01-29T11:44:04;26.90;;;14.80;;
7729;SDS011;3908;52.310;7.230;2023-01-29T11:47:10;28.27;;;15.33;;
7729;SDS011;3908;52.310;7.230;2023-01-29T11:50:03;27.00;;;14.57;;
7729;SDS011;3908;52.310;7.230;2023-01-29T11:52:50;26.60;;;14.03;;
7729;SDS011;3908;52.310;7.230;2023-01-29T11:55:38;35.37;;;15.77;;
7729;SDS011;3908;52.310;7.230;2023-01-29T11:58:31;30.73;;;14.93;;
7729;SDS011;3908;52.310;7.230;2023-01-29T12:01:23;28.50;;;15.40;;
7729;SDS011;3908;52.310;7.230;2023-01-29T12:04:19;30.40;;;15.00;;
7729;SDS011;3908;52.310;7.230;2023-01-29T12:07:10;31.13;;;17.30;;
7729;SDS011;3908;52.310;7.230;2023-01-29T12:10:00;30.30;;;16.03;;
7729;SDS011;3908;52.310;7.230;2023-01-29T12:12:47;26.50;;;14.23;;
7729;SDS011;3908;52.310;7.230;2023-01-29T12:15:34;29.93;;;17.27;;
7729;SDS011;3908;52.310;7.230;2023-01-29T12:18:23;30.37;;;16.93;;
7729;SDS011;3908;52.310;7.230;2023-01-29T12:21:19;33.57;;;17.40;;
7729;SDS011;3908;52.310;7.230;2023-01-29T12:24:15;29.77;;;16.63;;
7729;SDS011;3908;52.310;7.230;2023-01-29T12:27:11;29.17;;;16.93;;
7729;SDS011;3908;52.310;7.230;2023-01-29T12:30:03;29.97;;;17.40;;
7729;SDS011;3908;52.310;7.230;2023-01-29T12:32:58;33.90;;;18.43;;
7729;SDS011;3908;52.310;7.230;2023-01-29T12:35:52;36.43;;;18.67;;
7729;SDS011;3908;52.310;7.230;2023-01-29T12:38:45;30.23;;;18.20;;
7729;SDS011;3908;52.310;7.230;2023-01-29T12:41:34;32.33;;;17.80;;
7729;SDS011;3908;52.310;7.230;2023-01-29T12:44:25;33.13;;;18.70;;
7729;SDS011;3908;52.310;7.230;2023-01-29T12:47:20;36.00;;;19.00;;
7729;SDS011;3908;52.310;7.230;2023-01-29T12:50:13;30.17;;;17.33;;
7729;SDS011;3908;52.310;7.230;2023-01-29T12:53:05;32.50;;;17.93;;
7729;SDS011;3908;52.310;7.230;2023-01-29T12:56:06;33.43;;;18.63;;
7729;SDS011;3908;52.310;7.230;2023-01-29T12:58:58;34.03;;;19.17;;
7729;SDS011;3908;52.310;7.230;2023-01-29T13:01:49;30.53;;;17.97;;
7729;SDS011;3908;52.310;7.230;2023-01-29T13:04:40;34.07;;;18.17;;
7729;SDS011;3908;52.310;7.230;2023-01-29T13:07:31;34.53;;;18.23;;
7729;SDS011;3908;52.310;7.230;2023-01-29T13:10:25;34.90;;;17.77;;
7729;SDS011;3908;52.310;7.230;2023-01-29T13:13:18;30.77;;;17.80;;
7729;SDS011;3908;52.310;7.230;2023-01-29T13:16:13;32.10;;;17.93;;
7729;SDS011;3908;52.310;7.230;2023-01-29T13:19:14;34.00;;;18.23;;
7729;SDS011;3908;52.310;7.230;2023-01-29T13:22:11;30.37;;;18.90;;
7729;SDS011;3908;52.310;7.230;2023-01-29T13:25:04;33.97;;;18.70;;
7729;SDS011;3908;52.310;7.230;2023-01-29T13:27:55;36.90;;;18.27;;
7729;SDS011;3908;52.310;7.230;2023-01-29T13:30:44;32.00;;;18.67;;
7729;SDS011;3908;52.310;7.230;2023-01-29T13:33:31;34.03;;;18.93;;
7729;SDS011;3908;52.310;7.230;2023-01-29T13:36:20;33.67;;;18.13;;
7729;SDS011;3908;52.310;7.230;2023-01-29T13:39:16;37.70;;;19.50;;
7729;SDS011;3908;52.310;7.230;2023-01-29T13:42:13;36.40;;;19.40;;
7729;SDS011;3908;52.310;7.230;2023-01-29T13:45:04;33.53;;;18.97;;
7729;SDS011;3908;52.310;7.230;2023-01-29T13:47:55;34.77;;;18.60;;
7729;SDS011;3908;52.310;7.230;2023-01-29T13:50:55;34.27;;;17.87;;
7729;SDS011;3908;52.310;7.230;2023-01-29T13:53:51;32.40;;;18.57;;
7729;SDS011;3908;52.310;7.230;2023-01-29T13:56:42;31.30;;;17.07;;
7729;SDS011;3908;52.310;7.230;2023-01-29T13:59:50;36.57;;;18.83;;
7729;SDS011;3908;52.310;7.230;2023-01-29T14:02:39;35.97;;;19.90;;
7729;SDS011;3908;52.310;7.230;2023-01-29T14:08:44;34.87;;;19.60;;
7729;SDS011;3908;52.310;7.230;2023-01-29T14:11:34;51.03;;;21.67;;
7729;SDS011;3908;52.310;7.230;2023-01-29T14:17:53;33.77;;;18.83;;
7729;SDS011;3908;52.310;7.230;2023-01-29T14:20:51;33.97;;;19.10;;
7729;SDS011;3908;52.310;7.230;2023-01-29T14:23:45;35.57;;;19.83;;
7729;SDS011;3908;52.310;7.230;2023-01-29T14:26:40;33.73;;;18.60;;
7729;SDS011;3908;52.310;7.230;2023-01-29T14:29:30;37.07;;;19.17;;
7729;SDS011;3908;52.310;7.230;2023-01-29T14:32:24;34.60;;;20.13;;
7729;SDS011;3908;52.310;7.230;2023-01-29T14:35:16;37.07;;;20.03;;
7729;SDS011;3908;52.310;7.230;2023-01-29T14:38:06;34.43;;;18.90;;
7729;SDS011;3908;52.310;7.230;2023-01-29T14:41:01;39.17;;;20.03;;
7729;SDS011;3908;52.310;7.230;2023-01-29T14:47:16;33.23;;;18.97;;
7729;SDS011;3908;52.310;7.230;2023-01-29T14:54:04;36.47;;;19.87;;
7729;SDS011;3908;52.310;7.230;2023-01-29T14:57:02;36.33;;;20.10;;
7729;SDS011;3908;52.310;7.230;2023-01-29T14:59:53;35.57;;;20.23;;
7729;SDS011;3908;52.310;7.230;2023-01-29T15:02:43;37.77;;;19.97;;
7729;SDS011;3908;52.310;7.230;2023-01-29T15:05:31;41.20;;;21.27;;
7729;SDS011;3908;52.310;7.230;2023-01-29T15:08:24;43.43;;;22.00;;
7729;SDS011;3908;52.310;7.230;2023-01-29T15:11:19;41.47;;;21.50;;
7729;SDS011;3908;52.310;7.230;2023-01-29T15:14:23;38.07;;;20.63;;
7729;SDS011;3908;52.310;7.230;2023-01-29T15:17:26;35.47;;;20.63;;
7729;SDS011;3908;52.310;7.230;2023-01-29T15:20:28;40.17;;;21.97;;
7729;SDS011;3908;52.310;7.230;2023-01-29T15:23:23;41.10;;;21.60;;
7729;SDS011;3908;52.310;7.230;2023-01-29T15:26:12;42.53;;;22.77;;
7729;SDS011;3908;52.310;7.230;2023-01-29T15:29:05;44.03;;;22.63;;
7729;SDS011;3908;52.310;7.230;2023-01-29T15:31:52;42.87;;;23.50;;
7729;SDS011;3908;52.310;7.230;2023-01-29T15:34:40;41.73;;;23.40;;
7729;SDS011;3908;52.310;7.230;2023-01-29T15:37:29;45.10;;;22.67;;
7729;SDS011;3908;52.310;7.230;2023-01-29T15:40:18;45.87;;;22.97;;
7729;SDS011;3908;52.310;7.230;2023-01-29T15:43:16;44.80;;;22.90;;
7729;SDS011;3908;52.310;7.230;2023-01-29T15:46:09;38.17;;;21.80;;
7729;SDS011;3908;52.310;7.230;2023-01-29T15:49:05;40.13;;;23.17;;
7729;SDS011;3908;52.310;7.230;2023-01-29T15:51:54;41.27;;;22.83;;
7729;SDS011;3908;52.310;7.230;2023-01-29T15:54:43;41.10;;;23.10;;
7729;SDS011;3908;52.310;7.230;2023-01-29T15:57:32;42.63;;;23.70;;
7729;SDS011;3908;52.310;7.230;2023-01-29T16:00:24;43.53;;;23.33;;
7729;SDS011;3908;52.310;7.230;2023-01-29T16:03:13;44.27;;;23.27;;
7729;SDS011;3908;52.310;7.230;2023-01-29T16:06:01;45.63;;;22.57;;
7729;SDS011;3908;52.310;7.230;2023-01-29T16:08:52;40.43;;;22.50;;
7729;SDS011;3908;52.310;7.230;2023-01-29T16:11:39;46.80;;;24.40;;
7729;SDS011;3908;52.310;7.230;2023-01-29T16:14:28;45.97;;;22.97;;
7729;SDS011;3908;52.310;7.230;2023-01-29T16:17:25;39.63;;;22.30;;
7729;SDS011;3908;52.310;7.230;2023-01-29T16:20:25;48.23;;;23.60;;
7729;SDS011;3908;52.310;7.230;2023-01-29T16:23:20;45.70;;;24.60;;
7729;SDS011;3908;52.310;7.230;2023-01-29T16:26:13;44.70;;;23.93;;
7729;SDS011;3908;52.310;7.230;2023-01-29T16:29:03;47.73;;;24.30;;
7729;SDS011;3908;52.310;7.230;2023-01-29T16:31:52;50.90;;;23.67;;
7729;SDS011;3908;52.310;7.230;2023-01-29T16:34:47;45.90;;;23.60;;
7729;SDS011;3908;52.310;7.230;2023-01-29T16:37:36;49.67;;;25.03;;
7729;SDS011;3908;52.310;7.230;2023-01-29T16:40:24;46.33;;;24.03;;
7729;SDS011;3908;52.310;7.230;2023-01-29T16:46:34;43.80;;;23.17;;
7729;SDS011;3908;52.310;7.230;2023-01-29T16:52:31;47.03;;;24.17;;
7729;SDS011;3908;52.310;7.230;2023-01-29T16:55:20;49.40;;;25.70;;
7729;SDS011;3908;52.310;7.230;2023-01-29T16:58:11;53.30;;;26.70;;
7729;SDS011;3908;52.310;7.230;2023-01-29T17:01:01;52.87;;;25.93;;
7729;SDS011;3908;52.310;7.230;2023-01-29T17:03:52;46.63;;;26.27;;
7729;SDS011;3908;52.310;7.230;2023-01-29T17:06:45;47.13;;;24.73;;
7729;SDS011;3908;52.310;7.230;2023-01-29T17:09:35;45.00;;;23.80;;
7729;SDS011;3908;52.310;7.230;2023-01-29T17:12:24;47.70;;;24.80;;
7729;SDS011;3908;52.310;7.230;2023-01-29T17:15:26;51.33;;;25.80;;
7729;SDS011;3908;52.310;7.230;2023-01-29T17:18:17;45.63;;;25.17;;
7729;SDS011;3908;52.310;7.230;2023-01-29T17:21:05;39.67;;;22.97;;
7729;SDS011;3908;52.310;7.230;2023-01-29T17:23:52;50.10;;;25.37;;
7729;SDS011;3908;52.310;7.230;2023-01-29T17:26:43;50.20;;;23.97;;
7729;SDS011;3908;52.310;7.230;2023-01-29T17:29:30;53.57;;;23.67;;
7729;SDS011;3908;52.310;7.230;2023-01-29T17:32:17;50.47;;;24.47;;
7729;SDS011;3908;52.310;7.230;2023-01-29T17:35:04;53.80;;;23.93;;
7729;SDS011;3908;52.310;7.230;2023-01-29T17:37:52;44.77;;;22.10;;
7729;SDS011;3908;52.310;7.230;2023-01-29T17:40:40;44.90;;;22.47;;
7729;SDS011;3908;52.310;7.230;2023-01-29T17:43:30;42.20;;;21.93;;
7729;SDS011;3908;52.310;7.230;2023-01-29T17:46:18;48.80;;;23.03;;